Time;durP1;ratioP1;P1;durP2;ratioP2;P2;SDS_P1;SDS_P2;PMS_P1;PMS_P2;Temp;Humidity;BMP_temperature;BMP_pressure;BME280_temperature;BME280_humidity;BME280_pressure;Samples;Min_cycle;Max_cycle;Signal;HPM_P1;HPM_P2
2023/11/26 00:00:05;;;;;;;2.47;2.08;;;2.20;1.00;;;;;;5049543;28;20245;-76
2023/11/26 00:02:34;;;;;;;3.30;2.30;;;2.20;1.00;;;;;;5060006;28;20695;-77
2023/11/26 00:05:01;;;;;;;3.05;1.40;;;2.10;1.00;;;;;;5065114;28;20307;-76
2023/11/26 00:07:28;;;;;;;1.85;1.70;;;2.10;1.00;;;;;;5062168;28;20721;-80
2023/11/26 00:09:55;;;;;;;1.88;1.73;;;2.00;1.00;;;;;;5050928;28;20328;-77
2023/11/26 00:12:22;;;;;;;2.30;1.80;;;2.00;1.00;;;;;;5050563;28;20406;-77
2023/11/26 00:14:49;;;;;;;2.00;1.80;;;2.10;1.00;;;;;;5063316;28;20344;-76
2023/11/26 00:17:16;;;;;;;1.90;1.75;;;2.10;1.00;;;;;;5071630;28;20259;-76
2023/11/26 00:19:45;;;;;;;2.53;1.73;;;2.10;1.00;;;;;;5062606;28;20247;-75
2023/11/26 00:22:15;;;;;;;2.85;2.30;;;2.10;1.00;;;;;;5073551;28;20237;-78
2023/11/26 00:24:42;;;;;;;1.65;1.33;;;2.10;1.00;;;;;;5064249;28;20287;-77
2023/11/26 00:27:09;;;;;;;2.05;1.85;;;2.10;1.00;;;;;;5055160;28;20244;-77
2023/11/26 00:29:40;;;;;;;2.22;2.05;;;2.00;1.00;;;;;;5058584;28;20232;-75
2023/11/26 00:32:09;;;;;;;1.85;1.65;;;2.10;1.00;;;;;;5053781;28;20237;-76
2023/11/26 00:34:36;;;;;;;3.55;2.03;;;2.00;1.00;;;;;;5056876;28;20248;-75
2023/11/26 00:37:05;;;;;;;2.67;1.67;;;2.00;1.00;;;;;;5050812;28;20326;-75
2023/11/26 00:39:32;;;;;;;2.35;1.67;;;2.00;1.00;;;;;;5053634;28;20237;-75
2023/11/26 00:41:59;;;;;;;2.72;2.00;;;2.00;1.00;;;;;;5062691;28;20220;-76
2023/11/26 00:44:26;;;;;;;1.58;1.33;;;1.90;1.00;;;;;;5069548;28;20257;-75
2023/11/26 00:46:54;;;;;;;3.08;1.80;;;1.90;1.00;;;;;;5073056;28;20229;-76
2023/11/26 00:49:21;;;;;;;3.30;1.90;;;2.00;1.00;;;;;;5060858;28;21110;-75
2023/11/26 00:51:48;;;;;;;2.45;1.75;;;2.00;1.00;;;;;;5057959;28;20244;-73
2023/11/26 00:54:17;;;;;;;2.90;2.70;;;2.10;1.00;;;;;;5059811;28;20236;-76
2023/11/26 00:56:44;;;;;;;2.25;2.05;;;2.00;1.00;;;;;;5053638;28;20312;-77
2023/11/26 00:59:12;;;;;;;2.90;2.60;;;2.10;1.00;;;;;;5065314;28;21105;-77
2023/11/26 01:01:39;;;;;;;1.75;1.60;;;2.10;1.00;;;;;;5047360;28;21006;-75
2023/11/26 01:04:06;;;;;;;2.40;1.90;;;2.00;1.00;;;;;;5065278;28;20248;-75
2023/11/26 01:06:36;;;;;;;2.90;1.77;;;2.00;1.00;;;;;;5055081;28;20233;-80
2023/11/26 01:09:03;;;;;;;2.83;1.90;;;1.90;1.00;;;;;;5075487;28;20278;-79
2023/11/26 01:11:32;;;;;;;1.88;1.40;;;1.90;1.00;;;;;;5069591;28;20229;-81
2023/11/26 01:14:00;;;;;;;1.60;1.50;;;1.90;1.00;;;;;;5060307;28;21096;-79
2023/11/26 01:16:28;;;;;;;2.38;1.50;;;1.90;1.00;;;;;;5074115;28;20240;-80
2023/11/26 01:18:57;;;;;;;1.88;1.60;;;1.80;1.00;;;;;;5064600;28;20265;-73
2023/11/26 01:21:25;;;;;;;3.88;1.42;;;1.80;1.00;;;;;;5067490;28;21021;-78
2023/11/26 01:23:53;;;;;;;1.60;1.50;;;1.70;1.00;;;;;;5055759;28;20242;-77
2023/11/26 01:26:22;;;;;;;1.85;1.20;;;1.70;1.00;;;;;;5056219;28;21134;-76
2023/11/26 01:28:50;;;;;;;1.75;1.65;;;1.70;1.00;;;;;;5055141;28;21196;-77
2023/11/26 01:31:17;;;;;;;1.40;1.30;;;1.70;1.00;;;;;;5069109;28;20276;-78
2023/11/26 01:33:45;;;;;;;2.53;1.42;;;1.70;1.00;;;;;;5058552;28;20733;-80
2023/11/26 01:36:12;;;;;;;2.22;1.38;;;1.70;1.00;;;;;;5072209;28;20237;-78
2023/11/26 01:38:39;;;;;;;2.10;1.80;;;1.70;1.00;;;;;;5077151;28;20241;-80
2023/11/26 01:41:07;;;;;;;3.42;1.83;;;1.70;1.00;;;;;;5075746;28;20233;-80
2023/11/26 01:43:34;;;;;;;2.30;1.30;;;1.70;1.00;;;;;;5073531;28;20248;-77
2023/11/26 01:46:08;;;;;;;4.15;1.27;;;1.70;1.00;;;;;;5074012;28;20351;-76
2023/11/26 01:48:37;;;;;;;1.70;1.50;;;1.70;1.00;;;;;;5077467;28;20244;-78
2023/11/26 01:51:09;;;;;;;1.70;1.30;;;1.70;1.00;;;;;;5077104;28;20240;-81
2023/11/26 01:53:37;;;;;;;1.52;1.38;;;1.70;1.00;;;;;;5075651;28;20255;-80
2023/11/26 01:56:05;;;;;;;2.60;2.00;;;1.70;1.00;;;;;;5075689;28;20236;-79
2023/11/26 01:58:32;;;;;;;1.38;1.10;;;1.70;1.00;;;;;;5076822;28;21120;-78
2023/11/26 02:01:02;;;;;;;2.15;1.45;;;1.60;1.00;;;;;;5075953;28;20731;-77
2023/11/26 02:03:32;;;;;;;1.75;1.65;;;1.60;1.00;;;;;;5074670;28;20278;-79
2023/11/26 02:05:59;;;;;;;3.03;1.77;;;1.60;1.00;;;;;;5077875;28;20240;-78
2023/11/26 02:08:27;;;;;;;1.70;1.60;;;1.60;1.00;;;;;;5077078;28;20275;-78
2023/11/26 02:10:54;;;;;;;5.22;1.55;;;1.60;1.00;;;;;;5073542;28;20375;-73
2023/11/26 02:13:22;;;;;;;1.67;1.55;;;1.60;1.00;;;;;;5070763;28;20241;-76
2023/11/26 02:15:49;;;;;;;1.75;1.65;;;1.70;1.00;;;;;;5072542;28;20241;-80
2023/11/26 02:18:17;;;;;;;1.60;1.48;;;1.70;1.00;;;;;;5069739;28;21128;-76
2023/11/26 02:20:45;;;;;;;1.92;1.30;;;1.70;1.00;;;;;;5070743;28;20239;-77
2023/11/26 02:23:12;;;;;;;1.17;1.08;;;1.60;1.00;;;;;;5065779;28;20745;-77
2023/11/26 02:25:41;;;;;;;1.45;1.15;;;1.60;1.00;;;;;;5067173;28;20327;-77
2023/11/26 02:28:07;;;;;;;2.45;1.65;;;1.50;1.00;;;;;;5062127;28;20845;-77
2023/11/26 02:30:34;;;;;;;1.67;1.17;;;1.50;1.00;;;;;;5063636;28;20970;-74
2023/11/26 02:33:01;;;;;;;2.08;1.33;;;1.50;1.00;;;;;;5069579;28;20558;-76
2023/11/26 02:35:28;;;;;;;1.77;1.60;;;1.40;1.00;;;;;;5072142;28;21015;-76
2023/11/26 02:37:56;;;;;;;1.55;1.25;;;1.40;1.00;;;;;;5048462;28;20295;-77
2023/11/26 02:40:24;;;;;;;1.85;1.65;;;1.40;1.00;;;;;;5051425;28;20987;-78
2023/11/26 02:42:52;;;;;;;1.88;1.40;;;1.40;1.00;;;;;;5050867;28;20729;-77
2023/11/26 02:45:20;;;;;;;3.33;1.33;;;1.40;1.00;;;;;;5055618;28;20244;-76
2023/11/26 02:47:49;;;;;;;1.92;1.48;;;1.40;1.00;;;;;;5070549;28;20244;-76
2023/11/26 02:50:17;;;;;;;1.75;1.63;;;1.40;1.00;;;;;;5065909;28;20700;-76
2023/11/26 02:52:44;;;;;;;1.40;1.30;;;1.40;1.00;;;;;;5063190;28;20331;-77
2023/11/26 02:55:11;;;;;;;1.50;1.30;;;1.50;1.00;;;;;;5072504;28;21145;-77
2023/11/26 02:57:38;;;;;;;1.98;1.30;;;1.50;1.00;;;;;;5061172;28;20583;-75
2023/11/26 03:00:15;;;;;;;1.77;1.60;;;1.50;1.00;;;;;;5060585;28;20249;-77
2023/11/26 03:02:43;;;;;;;1.42;1.33;;;1.50;1.00;;;;;;5057891;28;20241;-76
2023/11/26 03:05:17;;;;;;;2.15;1.15;;;1.50;1.00;;;;;;5046752;28;20237;-76
2023/11/26 03:07:47;;;;;;;1.13;1.02;;;1.50;1.00;;;;;;5050021;28;20322;-73
2023/11/26 03:13:11;;;;;;;2.58;1.90;;;1.40;1.00;;;;;;5051683;28;20638;-74
2023/11/26 03:15:41;;;;;;;2.40;1.58;;;1.50;1.00;;;;;;5064224;28;20232;-73
2023/11/26 03:18:09;;;;;;;2.22;1.35;;;1.50;1.00;;;;;;5057185;28;20237;-73
2023/11/26 03:20:37;;;;;;;2.50;1.52;;;1.50;1.00;;;;;;5048375;28;20285;-73
2023/11/26 03:23:04;;;;;;;1.85;1.40;;;1.50;1.00;;;;;;5052435;28;20248;-73
2023/11/26 03:25:31;;;;;;;1.40;1.30;;;1.60;1.00;;;;;;5050293;28;20333;-72
2023/11/26 03:27:59;;;;;;;2.45;1.20;;;1.60;1.00;;;;;;5053460;28;20273;-77
2023/11/26 03:30:26;;;;;;;1.77;1.23;;;1.60;1.00;;;;;;5056488;28;20356;-74
2023/11/26 03:32:57;;;;;;;1.35;1.25;;;1.60;1.00;;;;;;5063066;28;20243;-75
2023/11/26 03:35:26;;;;;;;2.30;1.60;;;1.60;1.00;;;;;;5069621;28;20240;-78
2023/11/26 03:37:54;;;;;;;2.75;2.20;;;1.70;1.00;;;;;;5068456;28;20731;-76
2023/11/26 03:40:22;;;;;;;1.65;1.55;;;1.80;1.00;;;;;;5067610;28;20244;-76
2023/11/26 03:42:49;;;;;;;2.42;1.67;;;1.80;1.00;;;;;;5066557;28;20287;-76
2023/11/26 03:45:16;;;;;;;2.63;2.00;;;1.80;1.00;;;;;;5055771;28;20367;-76
2023/11/26 03:47:45;;;;;;;1.73;1.30;;;1.90;1.00;;;;;;5070303;28;20248;-76
2023/11/26 03:50:13;;;;;;;2.05;1.30;;;1.90;1.00;;;;;;5057204;28;20916;-76
2023/11/26 03:52:40;;;;;;;1.70;1.60;;;1.90;1.00;;;;;;5048626;28;20736;-74
2023/11/26 03:55:09;;;;;;;1.20;1.10;;;1.80;1.00;;;;;;5068206;28;20303;-76
2023/11/26 03:57:37;;;;;;;1.38;1.20;;;1.90;1.00;;;;;;5067111;28;20229;-75
2023/11/26 04:00:07;;;;;;;3.40;1.70;;;1.90;1.00;;;;;;5064729;28;20245;-76
2023/11/26 04:02:34;;;;;;;2.10;1.73;;;1.90;1.00;;;;;;5058691;28;20324;-75
2023/11/26 04:05:01;;;;;;;1.50;1.40;;;1.90;1.00;;;;;;5064071;28;20264;-75
2023/11/26 04:07:29;;;;;;;1.83;1.17;;;1.90;1.00;;;;;;5054478;28;20251;-76
2023/11/26 04:09:55;;;;;;;1.50;1.40;;;1.90;1.00;;;;;;5060150;28;20246;-75
2023/11/26 04:12:23;;;;;;;3.08;1.42;;;1.90;1.00;;;;;;5060193;28;20233;-74
2023/11/26 04:14:55;;;;;;;2.25;1.50;;;1.90;1.00;;;;;;5065924;28;20240;-75
2023/11/26 04:17:23;;;;;;;1.88;1.30;;;1.90;1.00;;;;;;5067716;28;20237;-75
2023/11/26 04:19:50;;;;;;;3.25;1.40;;;1.90;1.00;;;;;;5065582;28;20318;-75
2023/11/26 04:22:20;;;;;;;1.90;1.67;;;1.80;1.00;;;;;;5060003;28;20241;-76
2023/11/26 04:24:49;;;;;;;1.50;1.40;;;1.80;1.00;;;;;;5045094;28;20624;-76
2023/11/26 04:27:17;;;;;;;2.33;1.63;;;1.80;1.00;;;;;;5068247;28;21135;-77
2023/11/26 04:29:44;;;;;;;1.88;1.63;;;1.80;1.00;;;;;;5057403;28;20244;-76
2023/11/26 04:32:12;;;;;;;1.48;1.38;;;1.90;1.00;;;;;;5064421;28;20785;-77
2023/11/26 04:34:40;;;;;;;2.10;1.60;;;1.80;1.00;;;;;;5059095;28;20245;-74
2023/11/26 04:37:08;;;;;;;2.47;2.05;;;1.90;1.00;;;;;;5053861;28;20233;-71
2023/11/26 04:39:35;;;;;;;2.05;1.40;;;1.90;1.00;;;;;;5044962;28;20973;-73
2023/11/26 04:42:04;;;;;;;2.33;1.80;;;2.00;1.00;;;;;;5058086;28;20773;-72
2023/11/26 04:44:32;;;;;;;2.20;1.92;;;2.00;1.00;;;;;;5059881;28;20268;-72
2023/11/26 04:46:59;;;;;;;1.70;1.40;;;2.00;1.00;;;;;;5065221;28;20325;-72
2023/11/26 04:49:26;;;;;;;4.32;2.08;;;2.00;1.00;;;;;;5070365;28;20742;-71
2023/11/26 04:51:53;;;;;;;2.45;1.80;;;1.90;1.00;;;;;;5048465;28;20307;-71
2023/11/26 04:54:21;;;;;;;1.80;1.50;;;2.00;1.00;;;;;;5060465;28;20238;-74
2023/11/26 04:56:48;;;;;;;3.72;1.67;;;2.00;1.00;;;;;;5065288;28;20236;-72
2023/11/26 04:59:17;;;;;;;3.20;1.75;;;1.90;1.00;;;;;;5069384;28;20763;-81
2023/11/26 05:01:48;;;;;;;2.47;2.28;;;1.90;1.00;;;;;;5048939;28;20248;-73
2023/11/26 05:04:16;;;;;;;2.20;2.00;;;1.90;1.00;;;;;;5046162;28;20359;-73
2023/11/26 05:06:43;;;;;;;2.50;2.10;;;2.00;1.00;;;;;;5066468;28;20609;-72
2023/11/26 05:09:12;;;;;;;2.90;2.42;;;2.00;1.00;;;;;;5052705;28;20237;-73
2023/11/26 05:11:40;;;;;;;2.38;2.10;;;2.00;1.00;;;;;;5060464;28;20248;-74
2023/11/26 05:14:09;;;;;;;2.45;1.60;;;2.00;1.00;;;;;;5064391;28;20240;-72
2023/11/26 05:16:40;;;;;;;4.85;2.10;;;2.10;1.00;;;;;;5059214;28;20327;-71
2023/11/26 05:19:07;;;;;;;2.00;1.90;;;2.10;1.00;;;;;;5067918;28;20224;-74
2023/11/26 05:21:34;;;;;;;3.40;2.58;;;2.10;1.00;;;;;;5066585;28;20236;-72
2023/11/26 05:24:01;;;;;;;2.40;2.17;;;2.10;1.00;;;;;;5055649;28;21081;-73
2023/11/26 05:26:29;;;;;;;4.18;2.42;;;2.00;1.00;;;;;;5061171;28;20243;-73
2023/11/26 05:28:56;;;;;;;2.83;2.63;;;2.00;1.00;;;;;;5067671;28;21072;-73
2023/11/26 05:31:23;;;;;;;3.60;2.45;;;2.00;1.00;;;;;;5060537;28;22959;-72
2023/11/26 05:33:52;;;;;;;2.92;2.45;;;2.00;1.00;;;;;;5050826;28;20366;-75
2023/11/26 05:36:19;;;;;;;2.28;2.08;;;2.00;1.00;;;;;;5067920;28;21197;-74
2023/11/26 05:38:46;;;;;;;2.42;2.22;;;1.90;1.00;;;;;;5056875;28;20967;-74
2023/11/26 05:41:13;;;;;;;2.42;2.00;;;1.90;1.00;;;;;;5054492;28;20238;-72
2023/11/26 05:43:40;;;;;;;2.38;2.15;;;1.90;1.00;;;;;;5047385;28;20319;-73
2023/11/26 05:46:07;;;;;;;3.38;2.10;;;1.90;1.00;;;;;;5050679;28;20815;-74
2023/11/26 05:48:34;;;;;;;2.60;2.40;;;1.90;1.00;;;;;;5052255;28;20245;-76
2023/11/26 05:51:05;;;;;;;3.92;2.70;;;1.80;1.00;;;;;;5058345;28;20328;-70
2023/11/26 05:53:32;;;;;;;2.72;2.53;;;1.80;1.00;;;;;;5068420;28;20745;-74
2023/11/26 05:56:00;;;;;;;5.07;3.15;;;1.80;1.00;;;;;;5058443;28;21212;-72
2023/11/26 05:58:29;;;;;;;2.33;2.13;;;1.70;1.00;;;;;;5057951;28;20244;-73
2023/11/26 06:00:56;;;;;;;3.35;2.80;;;1.70;1.00;;;;;;5051626;28;20234;-70
2023/11/26 06:03:22;;;;;;;2.67;2.47;;;1.70;1.00;;;;;;5052127;28;20701;-70
2023/11/26 06:05:50;;;;;;;5.50;3.10;;;1.70;1.00;;;;;;5050488;28;20362;-75
2023/11/26 06:08:19;;;;;;;3.92;3.55;;;1.70;1.00;;;;;;5051770;28;20240;-71
2023/11/26 06:10:46;;;;;;;4.45;3.08;;;1.70;1.00;;;;;;5068616;28;20257;-74
2023/11/26 06:13:14;;;;;;;2.70;2.35;;;1.80;1.00;;;;;;5069257;28;20271;-73
2023/11/26 06:15:41;;;;;;;2.95;2.65;;;1.80;1.00;;;;;;5060198;28;20242;-71
2023/11/26 06:18:08;;;;;;;3.28;2.75;;;1.70;1.00;;;;;;5041512;28;20399;-70
2023/11/26 06:20:36;;;;;;;2.50;2.30;;;1.60;1.00;;;;;;5067163;28;20327;-70
2023/11/26 06:23:03;;;;;;;4.10;3.20;;;1.50;1.00;;;;;;5070250;28;20267;-69
2023/11/26 06:25:32;;;;;;;3.38;2.78;;;1.50;1.00;;;;;;5070108;28;20318;-72
2023/11/26 06:27:59;;;;;;;3.95;3.42;;;1.50;1.00;;;;;;5070369;28;20232;-74
2023/11/26 06:30:26;;;;;;;4.10;2.88;;;1.50;1.00;;;;;;5059777;28;21038;-71
2023/11/26 06:32:54;;;;;;;3.85;3.15;;;1.40;1.00;;;;;;5049845;28;20267;-74
2023/11/26 06:35:21;;;;;;;3.08;2.75;;;1.40;1.00;;;;;;5048789;28;20283;-75
2023/11/26 06:37:48;;;;;;;4.82;2.95;;;1.40;1.00;;;;;;5060871;28;20234;-71
2023/11/26 06:40:15;;;;;;;5.70;2.70;;;1.40;1.00;;;;;;5050298;28;20244;-72
2023/11/26 06:42:45;;;;;;;5.30;3.25;;;1.40;1.00;;;;;;5064217;28;20238;-77
2023/11/26 06:45:12;;;;;;;5.07;3.38;;;1.40;1.00;;;;;;5062305;28;20382;-74
2023/11/26 06:47:41;;;;;;;3.75;3.35;;;1.40;1.00;;;;;;5071434;28;20347;-71
2023/11/26 06:50:11;;;;;;;5.22;4.10;;;1.40;1.00;;;;;;5048223;28;20927;-72
2023/11/26 06:52:38;;;;;;;4.10;3.55;;;1.40;1.00;;;;;;5057775;28;20241;-69
2023/11/26 06:55:07;;;;;;;4.38;3.58;;;1.40;1.00;;;;;;5064213;28;20240;-71
2023/11/26 06:57:35;;;;;;;4.13;3.67;;;1.30;1.00;;;;;;5063873;28;20868;-72
2023/11/26 07:00:06;;;;;;;4.07;3.58;;;1.30;1.00;;;;;;5052583;28;20253;-70
2023/11/26 07:02:37;;;;;;;4.20;3.50;;;1.30;1.00;;;;;;5066805;28;20267;-71
2023/11/26 07:05:05;;;;;;;5.43;3.67;;;1.20;1.00;;;;;;5070872;28;20684;-72
2023/11/26 07:07:32;;;;;;;5.18;3.38;;;1.10;1.00;;;;;;5056339;28;20263;-75
2023/11/26 07:09:59;;;;;;;5.72;4.43;;;1.10;1.00;;;;;;5062612;28;20992;-74
2023/11/26 07:12:29;;;;;;;6.93;3.45;;;1.10;1.00;;;;;;5057726;28;20248;-70
2023/11/26 07:14:56;;;;;;;4.72;3.47;;;1.00;1.00;;;;;;5065222;28;20233;-72
2023/11/26 07:17:26;;;;;;;3.97;3.25;;;0.90;1.00;;;;;;5066098;28;20233;-71
2023/11/26 07:19:53;;;;;;;4.35;2.85;;;0.90;1.00;;;;;;5066325;28;21000;-69
2023/11/26 07:22:21;;;;;;;3.70;3.20;;;0.90;1.00;;;;;;5066683;28;20237;-70
2023/11/26 07:24:49;;;;;;;3.15;2.90;;;0.80;1.00;;;;;;5064392;28;20244;-71
2023/11/26 07:27:18;;;;;;;3.03;2.58;;;0.80;1.00;;;;;;5057005;28;20239;-72
2023/11/26 07:29:45;;;;;;;5.00;4.00;;;0.80;1.00;;;;;;5070661;28;20245;-71
2023/11/26 07:32:12;;;;;;;4.13;2.90;;;0.80;1.00;;;;;;5067092;28;20240;-70
2023/11/26 07:34:43;;;;;;;3.50;3.17;;;0.80;1.00;;;;;;5067217;28;21111;-69
2023/11/26 07:37:11;;;;;;;5.50;3.55;;;0.80;1.00;;;;;;5059845;28;20792;-70
2023/11/26 07:39:38;;;;;;;6.78;3.75;;;0.80;1.00;;;;;;5062909;28;20249;-70
2023/11/26 07:42:05;;;;;;;3.95;3.33;;;0.70;1.00;;;;;;5057248;28;20243;-73
2023/11/26 07:44:32;;;;;;;6.88;4.30;;;0.80;1.00;;;;;;5065859;28;20233;-70
2023/11/26 07:47:01;;;;;;;5.22;3.30;;;0.80;1.00;;;;;;5069427;28;20260;-70
2023/11/26 07:49:29;;;;;;;3.28;2.75;;;0.70;1.00;;;;;;5067066;28;20229;-71
2023/11/26 07:51:58;;;;;;;5.95;3.60;;;0.70;1.00;;;;;;5053010;28;20240;-70
2023/11/26 07:54:25;;;;;;;4.95;3.42;;;0.70;1.00;;;;;;5065928;28;20340;-71
2023/11/26 07:56:52;;;;;;;4.82;3.33;;;0.70;1.00;;;;;;5058372;28;20319;-72
2023/11/26 07:59:20;;;;;;;3.00;2.70;;;0.70;1.00;;;;;;5067609;28;20231;-74
2023/11/26 08:01:50;;;;;;;3.53;3.00;;;0.80;1.00;;;;;;5065367;28;20261;-74
2023/11/26 08:04:17;;;;;;;3.65;3.35;;;0.80;1.00;;;;;;5064946;28;20245;-71
2023/11/26 08:06:47;;;;;;;4.13;3.70;;;0.90;1.00;;;;;;5070531;28;20984;-73
2023/11/26 08:09:16;;;;;;;6.20;4.07;;;0.90;1.00;;;;;;5053837;28;20303;-74
2023/11/26 08:11:45;;;;;;;5.85;3.63;;;0.90;1.00;;;;;;5068416;28;20319;-74
2023/11/26 08:14:13;;;;;;;4.10;3.65;;;1.10;1.00;;;;;;5053495;28;20237;-77
2023/11/26 08:16:42;;;;;;;3.83;3.42;;;1.20;1.00;;;;;;5052614;28;20363;-75
2023/11/26 08:19:16;;;;;;;3.88;3.47;;;1.60;1.00;;;;;;5056467;28;20295;-73
2023/11/26 08:21:44;;;;;;;3.17;2.88;;;2.10;1.00;;;;;;5064087;28;20319;-69
2023/11/26 08:24:17;;;;;;;4.05;3.22;;;2.30;1.00;;;;;;5048412;28;20238;-72
2023/11/26 08:26:47;;;;;;;5.47;3.83;;;2.30;1.00;;;;;;5060974;28;20339;-72
2023/11/26 08:29:16;;;;;;;4.18;3.40;;;2.30;1.00;;;;;;5056151;28;20342;-72
2023/11/26 08:31:44;;;;;;;5.88;4.05;;;2.20;1.00;;;;;;5065802;28;21098;-74
2023/11/26 08:34:15;;;;;;;3.88;3.13;;;2.10;1.00;;;;;;5066109;28;20247;-72
2023/11/26 08:36:42;;;;;;;4.75;4.30;;;1.90;1.00;;;;;;5070790;28;20729;-71
2023/11/26 08:39:18;;;;;;;3.38;3.10;;;1.90;1.00;;;;;;5066085;28;20241;-74
2023/11/26 08:41:47;;;;;;;3.60;3.30;;;1.90;1.00;;;;;;5064806;28;20323;-72
2023/11/26 08:44:15;;;;;;;3.92;3.53;;;2.00;1.00;;;;;;5055213;28;20238;-71
2023/11/26 08:46:43;;;;;;;4.07;3.30;;;1.90;1.00;;;;;;5066841;28;20302;-74
2023/11/26 08:49:10;;;;;;;3.05;2.83;;;1.90;1.00;;;;;;5067871;28;20332;-72
2023/11/26 08:51:37;;;;;;;5.10;3.03;;;1.90;1.00;;;;;;5059251;28;20241;-72
2023/11/26 08:54:04;;;;;;;3.75;3.05;;;1.90;1.00;;;;;;5067069;28;20237;-73
2023/11/26 08:56:32;;;;;;;4.03;3.10;;;1.90;1.00;;;;;;5058520;28;20407;-72
2023/11/26 08:59:00;;;;;;;3.78;3.40;;;2.00;1.00;;;;;;5064745;28;20244;-73
2023/11/26 09:01:27;;;;;;;3.90;3.45;;;2.00;1.00;;;;;;5069991;28;20725;-72
2023/11/26 09:03:54;;;;;;;3.83;3.08;;;2.10;1.00;;;;;;5067049;28;20293;-72
2023/11/26 09:06:21;;;;;;;3.70;3.30;;;2.00;1.00;;;;;;5067914;28;20244;-71
2023/11/26 09:08:50;;;;;;;3.90;3.50;;;2.10;1.00;;;;;;5069268;28;20264;-71
2023/11/26 09:11:17;;;;;;;3.83;3.53;;;2.10;1.00;;;;;;5064957;28;21540;-75
2023/11/26 09:13:45;;;;;;;3.60;2.80;;;2.20;1.00;;;;;;5047164;28;20240;-73
2023/11/26 09:16:16;;;;;;;4.57;3.15;;;2.40;1.00;;;;;;5058610;28;20245;-71
2023/11/26 09:18:43;;;;;;;4.05;3.00;;;2.70;1.00;;;;;;5069108;28;21002;-77
2023/11/26 09:21:12;;;;;;;3.92;3.63;;;2.90;1.00;;;;;;5073039;28;20244;-75
2023/11/26 09:23:43;;;;;;;3.22;2.90;;;3.00;1.00;;;;;;5064798;28;20257;-78
2023/11/26 09:26:11;;;;;;;3.95;2.88;;;3.30;1.00;;;;;;5069169;28;20693;-73
2023/11/26 09:28:38;;;;;;;3.10;2.80;;;3.50;1.00;;;;;;5084003;28;20237;-77
2023/11/26 09:31:08;;;;;;;3.40;3.10;;;3.60;1.00;;;;;;5075767;28;20290;-76
2023/11/26 09:33:37;;;;;;;3.03;2.72;;;3.60;1.00;;;;;;5069708;28;20228;-77
2023/11/26 09:36:05;;;;;;;3.40;2.30;;;3.50;1.00;;;;;;5070797;28;20279;-75
2023/11/26 09:38:32;;;;;;;3.25;2.90;;;3.40;1.00;;;;;;5071346;28;20259;-76
2023/11/26 09:41:00;;;;;;;2.90;2.70;;;3.60;1.00;;;;;;5064362;28;20271;-78
2023/11/26 09:43:31;;;;;;;4.10;2.70;;;4.10;1.00;;;;;;5062505;28;20225;-78
2023/11/26 09:45:58;;;;;;;3.20;2.50;;;4.30;1.00;;;;;;5072693;28;20267;-78
2023/11/26 09:48:26;;;;;;;2.83;1.95;;;4.40;1.00;;;;;;5072276;28;20259;-78
2023/11/26 09:50:55;;;;;;;2.88;2.58;;;4.50;1.00;;;;;;5061818;28;22097;-78
2023/11/26 09:53:24;;;;;;;4.53;2.95;;;4.60;1.00;;;;;;5073579;28;20302;-78
2023/11/26 09:55:52;;;;;;;4.57;2.85;;;4.80;1.00;;;;;;5065680;28;21026;-79
2023/11/26 09:58:19;;;;;;;2.60;2.40;;;4.70;1.00;;;;;;5050899;28;20283;-77
2023/11/26 10:00:46;;;;;;;2.63;2.25;;;4.40;1.00;;;;;;5062321;28;20300;-79
2023/11/26 10:03:14;;;;;;;4.07;2.40;;;4.10;1.00;;;;;;5076496;28;20810;-77
2023/11/26 10:05:41;;;;;;;2.95;2.65;;;4.00;1.00;;;;;;5061479;28;20241;-76
2023/11/26 10:08:28;;;;;;;2.63;2.30;;;4.00;1.00;;;;;;5044825;28;20761;-76
2023/11/26 10:10:55;;;;;;;3.97;2.90;;;4.00;1.00;;;;;;5057574;28;20744;-79
2023/11/26 10:13:24;;;;;;;5.45;2.92;;;4.10;1.00;;;;;;5071122;28;20807;-77
2023/11/26 10:15:51;;;;;;;3.53;2.50;;;4.10;1.00;;;;;;5074951;28;20232;-79
2023/11/26 10:18:18;;;;;;;3.10;2.40;;;4.10;1.00;;;;;;5075176;28;20307;-76
2023/11/26 10:20:50;;;;;;;5.05;3.33;;;4.50;1.00;;;;;;5068195;28;20323;-78
2023/11/26 10:23:25;;;;;;;2.30;2.10;;;4.40;1.00;;;;;;5071717;28;20236;-79
2023/11/26 10:25:52;;;;;;;2.83;2.53;;;4.30;1.00;;;;;;5075199;28;20256;-75
2023/11/26 10:28:20;;;;;;;4.85;2.90;;;4.60;1.00;;;;;;5071988;28;20317;-75
2023/11/26 10:30:47;;;;;;;4.82;2.95;;;5.30;1.00;;;;;;5073971;28;20252;-76
2023/11/26 10:33:14;;;;;;;3.67;2.45;;;5.40;1.00;;;;;;5074153;28;20302;-78
2023/11/26 10:35:47;;;;;;;2.65;2.15;;;5.80;1.00;;;;;;5072976;28;20271;-78
2023/11/26 10:38:15;;;;;;;2.75;2.15;;;6.00;1.00;;;;;;5056826;28;20263;-77
2023/11/26 10:40:45;;;;;;;3.20;2.00;;;5.60;1.00;;;;;;5064076;28;20241;-77
2023/11/26 10:43:12;;;;;;;2.08;1.88;;;5.40;1.00;;;;;;5052128;28;20268;-77
2023/11/26 10:45:42;;;;;;;3.45;2.60;;;5.30;1.00;;;;;;5064763;28;20244;-78
2023/11/26 10:48:11;;;;;;;3.33;2.65;;;5.40;1.00;;;;;;5067002;28;20256;-79
2023/11/26 10:50:45;;;;;;;2.42;2.03;;;5.60;1.00;;;;;;5071107;28;20314;-77
2023/11/26 10:53:22;;;;;;;3.20;2.30;;;5.70;1.00;;;;;;5075603;28;20231;-76
2023/11/26 10:55:56;;;;;;;2.78;2.40;;;5.50;1.00;;;;;;5074112;28;20225;-77
2023/11/26 10:58:28;;;;;;;4.70;4.20;;;5.60;1.00;;;;;;5054329;28;20260;-74
2023/11/26 11:00:58;;;;;;;4.05;2.70;;;5.80;1.00;;;;;;5071625;28;20236;-78
2023/11/26 11:03:26;;;;;;;2.85;2.35;;;5.80;1.00;;;;;;5059151;28;20241;-78
2023/11/26 11:05:54;;;;;;;3.25;2.95;;;6.00;1.00;;;;;;5072311;28;20319;-77
2023/11/26 11:08:21;;;;;;;3.20;2.53;;;6.10;1.00;;;;;;5059623;28;20238;-74
2023/11/26 11:10:59;;;;;;;2.58;2.35;;;5.80;1.00;;;;;;5067552;28;20295;-74
2023/11/26 11:13:29;;;;;;;2.88;2.47;;;5.30;1.00;;;;;;5076580;28;20228;-77
2023/11/26 11:15:57;;;;;;;3.75;3.45;;;5.00;1.00;;;;;;5056083;28;20247;-78
2023/11/26 11:18:42;;;;;;;3.65;2.50;;;4.80;1.00;;;;;;5074643;28;20243;-79
2023/11/26 11:21:13;;;;;;;2.45;2.13;;;4.70;1.00;;;;;;5057540;28;20991;-77
2023/11/26 11:23:41;;;;;;;4.38;2.40;;;5.20;1.00;;;;;;5074043;28;20248;-80
2023/11/26 11:26:12;;;;;;;3.80;3.10;;;6.10;1.00;;;;;;5072938;28;20287;-75
2023/11/26 11:28:42;;;;;;;5.38;2.50;;;6.20;1.00;;;;;;5062072;28;20290;-79
2023/11/26 11:31:10;;;;;;;3.42;2.00;;;6.10;1.00;;;;;;5063473;28;20666;-78
2023/11/26 11:34:12;;;;;;;3.33;2.67;;;6.30;1.00;;;;;;5063691;28;21271;-77
2023/11/26 11:36:55;;;;;;;2.40;2.20;;;6.50;1.00;;;;;;5067998;28;20248;-78
2023/11/26 11:39:26;;;;;;;4.72;2.28;;;6.30;1.00;;;;;;5061041;28;20256;-79
2023/11/26 11:42:15;;;;;;;5.25;2.50;;;6.00;1.00;;;;;;5073810;28;20264;-84
2023/11/26 11:44:44;;;;;;;5.03;2.47;;;6.40;1.00;;;;;;5074008;28;20238;-81
2023/11/26 11:47:31;;;;;;;3.00;2.70;;;7.20;1.00;;;;;;5053506;28;20267;-73
2023/11/26 11:50:06;;;;;;;2.58;2.38;;;7.40;1.00;;;;;;5054335;28;20352;-74
2023/11/26 11:52:35;;;;;;;3.10;2.47;;;7.30;1.00;;;;;;5060740;28;20238;-73
2023/11/26 11:55:35;;;;;;;2.60;2.40;;;6.70;1.00;;;;;;5054984;28;20754;-74
2023/11/26 11:58:12;;;;;;;4.95;2.60;;;6.10;1.00;;;;;;5055437;28;20274;-74
2023/11/26 12:00:40;;;;;;;3.50;3.10;;;5.60;1.00;;;;;;5046108;28;20728;-74
2023/11/26 12:03:07;;;;;;;2.85;2.53;;;5.50;1.00;;;;;;5045871;28;20634;-74
2023/11/26 12:05:35;;;;;;;2.85;2.55;;;5.40;1.00;;;;;;5049631;28;20746;-73
2023/11/26 12:08:02;;;;;;;7.63;3.40;;;5.40;1.00;;;;;;5064848;28;20253;-72
2023/11/26 12:10:31;;;;;;;5.60;3.30;;;5.80;1.00;;;;;;5056656;28;20246;-73
2023/11/26 12:13:07;;;;;;;6.95;2.78;;;6.80;1.00;;;;;;5062353;28;21024;-72
2023/11/26 12:15:35;;;;;;;3.70;2.60;;;7.00;1.00;;;;;;5058941;28;20340;-72
2023/11/26 12:18:02;;;;;;;3.08;2.78;;;6.60;1.00;;;;;;5066341;28;20327;-73
2023/11/26 12:20:31;;;;;;;4.20;2.35;;;6.40;1.00;;;;;;5063580;28;20250;-74
2023/11/26 12:22:58;;;;;;;3.45;2.58;;;6.10;1.00;;;;;;5061860;28;20241;-75
2023/11/26 12:25:27;;;;;;;3.63;2.65;;;5.70;1.00;;;;;;5066870;28;20288;-72
2023/11/26 12:28:06;;;;;;;5.82;2.90;;;5.50;1.00;;;;;;5076518;28;20244;-76
2023/11/26 12:30:36;;;;;;;3.88;3.40;;;5.50;1.00;;;;;;5052943;28;20244;-75
2023/11/26 12:33:03;;;;;;;3.47;2.85;;;5.80;1.00;;;;;;5061482;28;20237;-75
2023/11/26 12:35:31;;;;;;;2.55;2.25;;;6.10;1.00;;;;;;5056131;28;20235;-74
2023/11/26 12:38:02;;;;;;;3.13;2.15;;;6.40;1.00;;;;;;5065336;28;20244;-73
2023/11/26 12:40:29;;;;;;;4.43;2.73;;;6.50;1.00;;;;;;5051245;28;20330;-73
2023/11/26 12:42:57;;;;;;;4.03;2.75;;;6.80;1.00;;;;;;5060813;28;20489;-75
2023/11/26 12:45:26;;;;;;;3.95;2.10;;;7.20;1.00;;;;;;5062158;28;20267;-72
2023/11/26 12:47:54;;;;;;;8.93;3.00;;;7.60;1.00;;;;;;5052801;28;20271;-73
2023/11/26 12:50:22;;;;;;;4.90;4.20;;;7.50;1.00;;;;;;5049067;28;20976;-73
2023/11/26 12:52:49;;;;;;;2.50;2.30;;;7.40;1.00;;;;;;5052988;28;20471;-73
2023/11/26 12:55:19;;;;;;;2.63;1.90;;;7.40;1.00;;;;;;5050917;28;20267;-73
2023/11/26 12:57:47;;;;;;;3.00;2.20;;;7.40;1.00;;;;;;5052180;28;20925;-73
2023/11/26 13:00:15;;;;;;;3.23;1.83;;;7.70;1.00;;;;;;5054991;28;20471;-74
2023/11/26 13:02:46;;;;;;;2.20;2.00;;;7.90;1.00;;;;;;5053091;28;20813;-76
2023/11/26 13:05:26;;;;;;;3.53;2.37;;;7.90;1.00;;;;;;5060392;28;20483;-75
2023/11/26 13:07:54;;;;;;;10.10;3.33;;;7.50;1.00;;;;;;5057915;28;20469;-75
2023/11/26 13:10:21;;;;;;;4.75;2.30;;;7.10;1.00;;;;;;5055813;28;20467;-74
2023/11/26 13:12:47;;;;;;;2.58;2.00;;;6.70;1.00;;;;;;5064643;28;20727;-74
2023/11/26 13:15:15;;;;;;;3.63;2.50;;;6.50;1.00;;;;;;5071241;28;20279;-74
2023/11/26 13:17:43;;;;;;;1.70;1.60;;;6.30;1.00;;;;;;5070064;28;20281;-74